Terminal Aerodrome Forecast
Issued by NWS Wichita, KS

Home | Current Version | Previous Version | Text Only | Print | Product List | Glossary On
Versions: 1 2 3 4 5 6 7 8 9 10 11 12
900
FTUS43 KICT 242330
TAFICT
TAF
KICT 242330Z 2500/2524 30008KT P6SM BKN100
     FM250100 36014G22KT P6SM BKN200
     FM250300 01012KT P6SM BKN200
     FM251100 01007KT P6SM FEW250
     FM251800 05007KT P6SM SCT250=

USA.gov is the U.S. government's official web portal to all federal, state and local government web resources and services.